< < Back
Terminal Aerodrome Forecast


Current Version              Previous Versions:   1  2  3  4  5  6  7  8  9  

Terminal Aerodrome Forecast

393
FTUS42 KCHS 282328
TAFCHS
TAF
KCHS 282328Z 2900/2924 VRB03KT P6SM TS SCT030 BKN060CB
     FM290100 VRB03KT P6SM SCT030 BKN080
     FM291300 33004KT P6SM SCT035 SCT060
     FM291900 14008KT P6SM SCT040 SCT080=

Latest METAR

777
SAUS80 KWBC 291400
MTRCHS
METAR KCHS 291356Z 01005KT 10SM BKN080 BKN200 27/22 A2996 RMK AO2 SLP144
T02720222 $


USA.gov is the U.S. government's official web portal to all federal, state and local government web resources and services.